Time;durP1;ratioP1;P1;durP2;ratioP2;P2;SDS_P1;SDS_P2;PMS_P1;PMS_P2;Temp;Humidity;BMP_temperature;BMP_pressure;BME280_temperature;BME280_humidity;BME280_pressure;Samples;Min_cycle;Max_cycle;Signal;HPM_P1;HPM_P2
2022/06/23 00:00:04;;;;;;;;;;;;;;;-143.90;100.00;54964.28;3044164;19;19950;-63
2022/06/23 00:01:12;;;;;;;;;;;;;;;-143.90;100.00;54980.19;3047436;19;19922;-63
2022/06/23 00:02:16;;;;;;;;;;;;;;;-143.90;100.00;54944.44;3045768;19;19942;-62
2022/06/23 00:03:18;;;;;;;;;;;;;;;-143.90;100.00;54942.44;3044747;19;19922;-62
2022/06/23 00:04:21;;;;;;;;;;;;;;;-143.90;100.00;54964.28;3044433;19;19919;-62
2022/06/23 00:05:22;;;;;;;;;;;;;;;-143.90;100.00;54970.25;3045581;19;19929;-62
2022/06/23 00:06:30;;;;;;;;;;;;;;;-143.90;100.00;54972.22;3043327;19;19926;-63
2022/06/23 00:07:32;;;;;;;;;;;;;;;-143.90;100.00;54952.38;3044163;19;19923;-63
2022/06/23 00:08:44;;;;;;;;;;;;;;;-143.90;100.00;54948.41;3044283;19;19914;-63
2022/06/23 00:09:44;;;;;;;;;;;;;;;-143.90;100.00;54976.19;3048128;19;20363;-63
2022/06/23 00:10:48;;;;;;;;;;;;;;;-143.90;100.00;54970.25;3048256;19;19933;-63
2022/06/23 00:11:49;;;;;;;;;;;;;;;-143.90;100.00;54976.19;3049006;19;20501;-62
2022/06/23 00:12:51;;;;;;;;;;;;;;;-143.90;100.00;54962.31;3044764;19;19923;-63
2022/06/23 00:13:54;;;;;;;;;;;;;;;-143.90;100.00;54972.22;3047153;19;20722;-63
2022/06/23 00:15:01;;;;;;;;;;;;;;;-143.90;100.00;54954.38;3051241;19;19929;-62
2022/06/23 00:16:02;;;;;;;;;;;;;;;-143.90;100.00;54988.13;3049977;19;19922;-64
2022/06/23 00:17:36;;;;;;;;;;;;;;;-143.90;100.00;54964.28;3048927;19;19933;-64
2022/06/23 00:18:37;;;;;;;;;;;;;;;-143.90;100.00;54952.38;3047634;19;19972;-63
2022/06/23 00:19:38;;;;;;;;;;;;;;;-143.90;100.00;54956.34;3047830;19;21631;-64
2022/06/23 00:20:47;;;;;;;;;;;;;;;-143.90;100.00;54968.25;3050535;19;19915;-63
2022/06/23 00:21:49;;;;;;;;;;;;;;;-143.90;100.00;54956.34;3046977;19;19942;-63
2022/06/23 00:22:54;;;;;;;;;;;;;;;-143.90;100.00;54972.22;3043863;19;19927;-63
2022/06/23 00:23:57;;;;;;;;;;;;;;;-143.90;100.00;54992.09;3048468;19;19993;-64
2022/06/23 00:24:58;;;;;;;;;;;;;;;-143.90;100.00;54978.19;3048177;19;19928;-63
2022/06/23 00:26:07;;;;;;;;;;;;;;;-143.90;100.00;54986.13;3049886;19;19934;-63
2022/06/23 00:27:17;;;;;;;;;;;;;;;-143.90;100.00;54988.13;3049421;19;20283;-64
2022/06/23 00:28:28;;;;;;;;;;;;;;;-143.90;100.00;54972.22;3048620;19;19927;-63
2022/06/23 00:29:29;;;;;;;;;;;;;;;-143.90;100.00;54970.25;3048958;19;20479;-60
2022/06/23 00:30:37;;;;;;;;;;;;;;;-143.90;100.00;54964.28;3047470;19;19923;-61
2022/06/23 00:31:42;;;;;;;;;;;;;;;-143.90;100.00;55004.00;3047534;19;19934;-62
2022/06/23 00:32:43;;;;;;;;;;;;;;;-143.90;100.00;54988.13;3049721;19;20660;-63
2022/06/23 00:33:44;;;;;;;;;;;;;;;-143.90;100.00;54992.09;3047803;19;20342;-63
2022/06/23 00:35:03;;;;;;;;;;;;;;;-143.90;100.00;54976.19;3049530;19;19987;-62
2022/06/23 00:36:13;;;;;;;;;;;;;;;-143.90;100.00;54980.19;3050259;19;19923;-63
2022/06/23 00:37:15;;;;;;;;;;;;;;;-143.90;100.00;54952.38;3047677;19;21257;-63
2022/06/23 00:38:20;;;;;;;;;;;;;;;-143.90;100.00;54984.16;3045790;19;19927;-63
2022/06/23 00:39:27;;;;;;;;;;;;;;;-143.90;100.00;54982.16;3049035;19;19922;-63
2022/06/23 00:40:28;;;;;;;;;;;;;;;-143.90;100.00;54966.28;3048717;19;19923;-64
2022/06/23 00:41:30;;;;;;;;;;;;;;;-143.90;100.00;54988.13;3048765;19;19927;-63
2022/06/23 00:42:35;;;;;;;;;;;;;;;-143.90;100.00;55002.00;3047722;19;19950;-63
2022/06/23 00:43:36;;;;;;;;;;;;;;;-143.90;100.00;54956.34;3049325;19;19918;-63
2022/06/23 00:44:39;;;;;;;;;;;;;;;-143.90;100.00;54956.34;3046195;19;19926;-63
2022/06/23 00:45:43;;;;;;;;;;;;;;;-143.90;100.00;54972.22;3050717;19;19983;-64
2022/06/23 00:46:45;;;;;;;;;;;;;;;-143.90;100.00;54984.16;3048332;19;19935;-64
2022/06/23 00:47:52;;;;;;;;;;;;;;;-143.90;100.00;54966.28;3049142;19;20264;-63
2022/06/23 00:48:54;;;;;;;;;;;;;;;-143.90;100.00;55011.94;3049798;19;19929;-62
2022/06/23 00:50:00;;;;;;;;;;;;;;;-143.90;100.00;54958.34;3048821;19;20638;-63
2022/06/23 00:51:03;;;;;;;;;;;;;;;-143.90;100.00;55002.00;3048805;19;19942;-63
2022/06/23 00:52:18;;;;;;;;;;;;;;;-143.90;100.00;54972.22;3045539;19;19923;-61
2022/06/23 00:53:22;;;;;;;;;;;;;;;-143.90;100.00;54932.53;3050052;19;20789;-63
2022/06/23 00:54:33;;;;;;;;;;;;;;;-143.90;100.00;54988.13;3047457;19;20339;-62
2022/06/23 00:55:34;;;;;;;;;;;;;;;-143.90;100.00;54968.25;3049059;19;19922;-62
2022/06/23 00:56:42;;;;;;;;;;;;;;;-143.90;100.00;54984.16;3049518;19;19929;-61
2022/06/23 00:57:47;;;;;;;;;;;;;;;-143.90;100.00;54980.19;3048643;19;20002;-63
2022/06/23 00:58:56;;;;;;;;;;;;;;;-143.90;100.00;54942.44;3046304;19;19929;-63
2022/06/23 01:00:06;;;;;;;;;;;;;;;-143.90;100.00;54968.25;3049894;19;19930;-62
2022/06/23 01:01:10;;;;;;;;;;;;;;;-143.90;100.00;55004.00;3050294;19;19914;-63
2022/06/23 01:02:11;;;;;;;;;;;;;;;-143.90;100.00;54940.47;3046672;19;20256;-62
2022/06/23 01:03:15;;;;;;;;;;;;;;;-143.90;100.00;54964.28;3047546;19;20297;-63
2022/06/23 01:04:18;;;;;;;;;;;;;;;-143.90;100.00;54968.25;3046486;19;19922;-62
2022/06/23 01:05:23;;;;;;;;;;;;;;;-143.90;100.00;54976.19;3050048;19;20448;-63
2022/06/23 01:06:25;;;;;;;;;;;;;;;-143.90;100.00;54984.16;3043988;19;19931;-63
2022/06/23 01:07:46;;;;;;;;;;;;;;;-143.90;100.00;54986.13;3050175;19;19930;-63
2022/06/23 01:08:48;;;;;;;;;;;;;;;-143.90;100.00;55000.03;3049724;19;20335;-62
2022/06/23 01:09:51;;;;;;;;;;;;;;;-143.90;100.00;54966.28;3045996;19;19936;-62
2022/06/23 01:11:01;;;;;;;;;;;;;;;-143.90;100.00;54944.44;3046310;19;19919;-62
2022/06/23 01:12:04;;;;;;;;;;;;;;;-143.90;100.00;54956.34;3049261;19;19979;-62
2022/06/23 01:13:30;;;;;;;;;;;;;;;-143.90;100.00;54958.34;3046827;19;20654;-63
2022/06/23 01:14:35;;;;;;;;;;;;;;;-143.90;100.00;54944.44;3048482;19;20295;-63
2022/06/23 01:15:38;;;;;;;;;;;;;;;-143.90;100.00;55000.03;3048138;19;19926;-63
2022/06/23 01:16:41;;;;;;;;;;;;;;;-143.90;100.00;54964.28;3048194;19;20025;-63
2022/06/23 01:17:50;;;;;;;;;;;;;;;-143.90;100.00;54986.13;3047445;19;19929;-62
2022/06/23 01:18:52;;;;;;;;;;;;;;;-143.90;100.00;54944.44;3045178;19;20283;-63
2022/06/23 01:19:59;;;;;;;;;;;;;;;-143.90;100.00;55007.97;3048615;19;20828;-62
2022/06/23 01:21:00;;;;;;;;;;;;;;;-143.90;100.00;54986.13;3048318;19;19974;-62
2022/06/23 01:22:02;;;;;;;;;;;;;;;-143.90;100.00;54984.16;3047956;19;19930;-63
2022/06/23 01:23:15;;;;;;;;;;;;;;;-143.90;100.00;54988.13;3047625;19;19922;-62
2022/06/23 01:24:34;;;;;;;;;;;;;;;-143.90;100.00;54944.44;3048404;19;19934;-62
2022/06/23 01:25:38;;;;;;;;;;;;;;;-143.90;100.00;54972.22;3050201;19;20628;-62
2022/06/23 01:26:39;;;;;;;;;;;;;;;-143.90;100.00;54984.16;3033875;19;19922;-61
2022/06/23 01:27:45;;;;;;;;;;;;;;;-143.90;100.00;54996.06;3048678;19;20359;-62
2022/06/23 01:28:46;;;;;;;;;;;;;;;-143.90;100.00;54934.50;3048318;19;20374;-63
2022/06/23 01:29:57;;;;;;;;;;;;;;;-143.90;100.00;54988.13;3048320;19;19941;-63
2022/06/23 01:31:19;;;;;;;;;;;;;;;-143.90;100.00;54996.06;3045903;19;19927;-62
2022/06/23 01:32:31;;;;;;;;;;;;;;;-143.90;100.00;54948.41;3048104;19;20521;-62
2022/06/23 01:33:38;;;;;;;;;;;;;;;-143.90;100.00;54986.13;3046665;19;19927;-61
2022/06/23 01:34:43;;;;;;;;;;;;;;;-143.90;100.00;54976.19;3048348;19;19923;-62
2022/06/23 01:36:04;;;;;;;;;;;;;;;-143.90;100.00;54982.16;3048473;19;19927;-62
2022/06/23 01:37:20;;;;;;;;;;;;;;;-143.90;100.00;54976.19;3046564;19;19914;-62
2022/06/23 01:38:27;;;;;;;;;;;;;;;-143.90;100.00;54996.06;3049869;19;20351;-63
2022/06/23 01:39:54;;;;;;;;;;;;;;;-143.90;100.00;54992.09;3043801;19;19918;-62
2022/06/23 01:40:59;;;;;;;;;;;;;;;-143.90;100.00;55002.00;3043851;19;19930;-63
2022/06/23 01:42:01;;;;;;;;;;;;;;;-143.90;100.00;54956.34;3048433;19;20525;-61
2022/06/23 01:43:04;;;;;;;;;;;;;;;-143.90;100.00;54966.28;3047105;19;19931;-62
2022/06/23 01:44:16;;;;;;;;;;;;;;;-143.90;100.00;54928.56;3047591;19;19922;-63
2022/06/23 01:45:38;;;;;;;;;;;;;;;-143.90;100.00;54994.06;3046243;19;19926;-63
2022/06/23 01:46:39;;;;;;;;;;;;;;;-143.90;100.00;54944.44;3046584;19;19926;-62
2022/06/23 01:47:55;;;;;;;;;;;;;;;-143.90;100.00;54960.31;3048101;19;19978;-62
2022/06/23 01:48:57;;;;;;;;;;;;;;;-143.90;100.00;54976.19;3047056;19;19926;-63
2022/06/23 01:50:00;;;;;;;;;;;;;;;-143.90;100.00;54958.34;3045738;19;19926;-63
2022/06/23 01:51:01;;;;;;;;;;;;;;;-143.90;100.00;54980.19;3048708;19;19926;-63
2022/06/23 01:52:05;;;;;;;;;;;;;;;-143.90;100.00;54980.19;3046886;19;19943;-62
2022/06/23 01:53:10;;;;;;;;;;;;;;;-143.90;100.00;54976.19;3046996;19;19927;-61
2022/06/23 01:54:20;;;;;;;;;;;;;;;-143.90;100.00;54976.19;3049112;19;19918;-63
2022/06/23 01:55:22;;;;;;;;;;;;;;;-143.90;100.00;55000.03;3045245;19;20561;-63
2022/06/23 01:56:31;;;;;;;;;;;;;;;-143.90;100.00;54940.47;3045577;19;19923;-63
2022/06/23 01:57:32;;;;;;;;;;;;;;;-143.90;100.00;54968.25;3049690;19;20374;-62
2022/06/23 01:58:53;;;;;;;;;;;;;;;-143.90;100.00;54972.22;3047133;19;20010;-62
2022/06/23 02:00:11;;;;;;;;;;;;;;;-143.90;100.00;54968.25;3046839;19;19919;-63
2022/06/23 02:01:14;;;;;;;;;;;;;;;-143.90;100.00;54944.44;3047825;19;20275;-63
2022/06/23 02:02:19;;;;;;;;;;;;;;;-143.90;100.00;54968.25;3047382;19;20431;-62
2022/06/23 02:03:21;;;;;;;;;;;;;;;-143.90;100.00;54970.25;3048462;19;19952;-60
2022/06/23 02:04:25;;;;;;;;;;;;;;;-143.90;100.00;54988.13;3046935;19;20020;-62
2022/06/23 02:05:45;;;;;;;;;;;;;;;-143.90;100.00;54956.34;3046581;19;19992;-62
2022/06/23 02:07:02;;;;;;;;;;;;;;;-143.90;100.00;54964.28;3048497;19;20524;-61
2022/06/23 02:08:03;;;;;;;;;;;;;;;-143.90;100.00;54964.28;3049097;19;19930;-62
2022/06/23 02:09:05;;;;;;;;;;;;;;;-143.90;100.00;54978.19;3046753;19;20351;-62
2022/06/23 02:10:09;;;;;;;;;;;;;;;-143.90;100.00;54960.31;3048223;19;19954;-63
2022/06/23 02:11:20;;;;;;;;;;;;;;;-143.90;100.00;54944.44;3048262;19;19929;-62
2022/06/23 02:12:33;;;;;;;;;;;;;;;-143.90;100.00;54970.25;3045601;19;19958;-62
2022/06/23 02:13:36;;;;;;;;;;;;;;;-143.90;100.00;54964.28;3045484;19;19939;-62
2022/06/23 02:14:43;;;;;;;;;;;;;;;-143.90;100.00;54932.53;3048259;19;19926;-61
2022/06/23 02:15:47;;;;;;;;;;;;;;;-143.90;100.00;54988.13;3047705;19;19924;-63
2022/06/23 02:16:50;;;;;;;;;;;;;;;-143.90;100.00;54978.19;3047956;19;19927;-61
2022/06/23 02:17:54;;;;;;;;;;;;;;;-143.90;100.00;54980.19;3043823;19;19922;-61
2022/06/23 02:18:56;;;;;;;;;;;;;;;-143.90;100.00;54962.31;3048083;19;19915;-63
2022/06/23 02:19:58;;;;;;;;;;;;;;;-143.90;100.00;54980.19;3044653;19;19922;-63
2022/06/23 02:21:02;;;;;;;;;;;;;;;-143.90;100.00;54978.19;3046095;19;19923;-62
2022/06/23 02:22:10;;;;;;;;;;;;;;;-143.90;100.00;54956.34;3047633;19;19934;-62
2022/06/23 02:23:38;;;;;;;;;;;;;;;-143.90;100.00;54996.06;3043665;19;19918;-62
2022/06/23 02:24:44;;;;;;;;;;;;;;;-143.90;100.00;54976.19;3046414;19;19929;-63
2022/06/23 02:26:20;;;;;;;;;;;;;;;-143.90;100.00;54980.19;3049088;19;19915;-63
2022/06/23 02:27:39;;;;;;;;;;;;;;;-143.90;100.00;54948.41;3046510;19;20020;-63
2022/06/23 02:28:41;;;;;;;;;;;;;;;-143.90;100.00;54990.09;3046448;19;20355;-62
2022/06/23 02:29:45;;;;;;;;;;;;;;;-143.90;100.00;54984.16;3044109;19;20358;-63
2022/06/23 02:30:58;;;;;;;;;;;;;;;-143.90;100.00;54992.09;3044245;19;19919;-63
2022/06/23 02:31:59;;;;;;;;;;;;;;;-143.90;100.00;54952.38;3049603;19;19931;-63
2022/06/23 02:33:02;;;;;;;;;;;;;;;-143.90;100.00;54976.19;3044485;19;20544;-62
2022/06/23 02:34:10;;;;;;;;;;;;;;;-143.90;100.00;54984.16;3040742;19;19918;-62
2022/06/23 02:35:11;;;;;;;;;;;;;;;-143.90;100.00;54972.22;3045273;19;19935;-62
2022/06/23 02:36:21;;;;;;;;;;;;;;;-143.90;100.00;54964.28;3046774;19;20717;-61
2022/06/23 02:37:42;;;;;;;;;;;;;;;-143.90;100.00;54972.22;3042534;19;20339;-63
2022/06/23 02:38:45;;;;;;;;;;;;;;;-143.90;100.00;54968.25;3048814;19;19925;-62
2022/06/23 02:39:49;;;;;;;;;;;;;;;-143.90;100.00;54970.25;3047966;19;19919;-62
2022/06/23 02:40:51;;;;;;;;;;;;;;;-143.90;100.00;54972.22;3046986;19;19915;-62
2022/06/23 02:41:54;;;;;;;;;;;;;;;-143.90;100.00;54984.16;3048117;19;19922;-62
2022/06/23 02:43:15;;;;;;;;;;;;;;;-143.90;100.00;54956.34;3046777;19;19955;-63
2022/06/23 02:44:19;;;;;;;;;;;;;;;-143.90;100.00;54976.19;3044454;19;19931;-61
2022/06/23 02:45:23;;;;;;;;;;;;;;;-143.90;100.00;54998.03;3049242;19;19919;-63
2022/06/23 02:46:34;;;;;;;;;;;;;;;-143.90;100.00;54972.22;3045619;19;19927;-62
2022/06/23 02:47:42;;;;;;;;;;;;;;;-143.90;100.00;54966.28;3046277;19;19942;-62
2022/06/23 02:48:53;;;;;;;;;;;;;;;-143.90;100.00;54988.13;3045648;19;19986;-63
2022/06/23 02:50:00;;;;;;;;;;;;;;;-143.90;100.00;54968.25;3046168;19;19925;-63
2022/06/23 02:51:20;;;;;;;;;;;;;;;-143.90;100.00;54994.06;3045697;19;19994;-61
2022/06/23 02:52:47;;;;;;;;;;;;;;;-143.90;100.00;54968.25;3048923;19;20505;-63
2022/06/23 02:53:57;;;;;;;;;;;;;;;-143.90;100.00;54976.19;3046094;19;19915;-63
2022/06/23 02:55:16;;;;;;;;;;;;;;;-143.90;100.00;54936.50;3047171;19;19919;-62
2022/06/23 02:56:17;;;;;;;;;;;;;;;-143.90;100.00;54984.16;3047836;19;20475;-61
2022/06/23 02:57:22;;;;;;;;;;;;;;;-143.90;100.00;54976.19;3046607;19;20271;-62
2022/06/23 02:58:27;;;;;;;;;;;;;;;-143.90;100.00;54968.25;3047113;19;19994;-63
2022/06/23 02:59:40;;;;;;;;;;;;;;;-143.90;100.00;54990.09;3045672;19;19929;-62
2022/06/23 03:00:45;;;;;;;;;;;;;;;-143.90;100.00;54976.19;3046868;19;19946;-64
2022/06/23 03:01:53;;;;;;;;;;;;;;;-143.90;100.00;54952.38;3047939;19;19954;-64
2022/06/23 03:03:06;;;;;;;;;;;;;;;-143.90;100.00;54982.16;3049131;19;19922;-63
2022/06/23 03:04:29;;;;;;;;;;;;;;;-143.90;100.00;54970.25;3045805;19;20003;-63
2022/06/23 03:05:49;;;;;;;;;;;;;;;-143.90;100.00;54962.31;3045243;19;19923;-62
2022/06/23 03:06:53;;;;;;;;;;;;;;;-143.90;100.00;54980.19;3046013;19;19923;-61
2022/06/23 03:07:56;;;;;;;;;;;;;;;-143.90;100.00;54970.25;3046907;19;19994;-62
2022/06/23 03:08:58;;;;;;;;;;;;;;;-143.90;100.00;55006.00;3046630;19;19922;-62
2022/06/23 03:10:06;;;;;;;;;;;;;;;-143.90;100.00;54998.03;3046249;19;19982;-63
2022/06/23 03:11:09;;;;;;;;;;;;;;;-143.90;100.00;54968.25;3048143;19;19923;-62
2022/06/23 03:12:23;;;;;;;;;;;;;;;-143.90;100.00;54960.31;3044701;19;19923;-63
2022/06/23 03:13:30;;;;;;;;;;;;;;;-143.90;100.00;54944.44;3045521;19;20262;-63
2022/06/23 03:14:43;;;;;;;;;;;;;;;-143.90;100.00;54956.34;3047232;19;19923;-62
2022/06/23 03:15:46;;;;;;;;;;;;;;;-143.90;100.00;54980.19;3046932;19;19923;-63
2022/06/23 03:16:49;;;;;;;;;;;;;;;-143.90;100.00;54996.06;3045799;19;20994;-63
2022/06/23 03:18:13;;;;;;;;;;;;;;;-143.90;100.00;54980.19;3046847;19;19929;-62
2022/06/23 03:19:22;;;;;;;;;;;;;;;-143.90;100.00;54968.25;3045882;19;19934;-62
2022/06/23 03:20:26;;;;;;;;;;;;;;;-143.90;100.00;54996.06;3045615;19;19918;-62
2022/06/23 03:21:28;;;;;;;;;;;;;;;-143.90;100.00;54996.06;3045094;19;19918;-62
2022/06/23 03:22:30;;;;;;;;;;;;;;;-143.90;100.00;54964.28;3046451;19;22213;-62
2022/06/23 03:23:37;;;;;;;;;;;;;;;-143.90;100.00;54986.13;3046898;19;19976;-63
2022/06/23 03:24:41;;;;;;;;;;;;;;;-143.90;100.00;54968.25;3046608;19;19919;-61
2022/06/23 03:25:47;;;;;;;;;;;;;;;-143.90;100.00;55023.84;3044225;19;20466;-62
2022/06/23 03:26:52;;;;;;;;;;;;;;;-143.90;100.00;55011.94;3042919;19;20502;-63
2022/06/23 03:27:58;;;;;;;;;;;;;;;-143.90;100.00;54984.16;3046371;19;19934;-63
2022/06/23 03:29:04;;;;;;;;;;;;;;;-143.90;100.00;54978.19;3045670;19;19923;-63
2022/06/23 03:30:06;;;;;;;;;;;;;;;-143.90;100.00;54972.22;3043790;19;19926;-64
2022/06/23 03:31:08;;;;;;;;;;;;;;;-143.90;100.00;54990.09;3045630;19;19923;-63
2022/06/23 03:32:14;;;;;;;;;;;;;;;-143.90;100.00;54966.28;3044518;19;20401;-63
2022/06/23 03:33:18;;;;;;;;;;;;;;;-143.90;100.00;54940.47;3044582;19;19927;-59
2022/06/23 03:34:37;;;;;;;;;;;;;;;-143.90;100.00;54992.09;3044719;19;19938;-62
2022/06/23 03:36:13;;;;;;;;;;;;;;;-143.90;100.00;54984.16;3047173;19;19986;-63
2022/06/23 03:37:16;;;;;;;;;;;;;;;-143.90;100.00;54948.41;3044930;19;19919;-63
2022/06/23 03:42:32;;;;;;;;;;;;;;;-143.90;100.00;54982.16;3046213;19;19922;-63
2022/06/23 03:43:33;;;;;;;;;;;;;;;-143.90;100.00;54968.25;3043358;19;19923;-63
2022/06/23 03:44:38;;;;;;;;;;;;;;;-143.90;100.00;54984.16;3044881;19;20961;-63
2022/06/23 03:45:40;;;;;;;;;;;;;;;-143.90;100.00;54996.06;3045800;19;19948;-61
2022/06/23 03:47:01;;;;;;;;;;;;;;;-143.90;100.00;54968.25;3042126;19;19927;-61
2022/06/23 03:48:16;;;;;;;;;;;;;;;-143.90;100.00;54968.25;3041727;19;19945;-63
2022/06/23 03:49:20;;;;;;;;;;;;;;;-143.90;100.00;54984.16;3047071;19;19986;-62
2022/06/23 03:50:25;;;;;;;;;;;;;;;-143.90;100.00;54982.16;3045663;19;19929;-63
2022/06/23 03:51:31;;;;;;;;;;;;;;;-143.90;100.00;54978.19;3044805;19;19919;-62
2022/06/23 03:52:34;;;;;;;;;;;;;;;-143.90;100.00;54968.25;3046352;19;20486;-62
2022/06/23 03:53:36;;;;;;;;;;;;;;;-143.90;100.00;54986.13;3045474;19;19930;-62
2022/06/23 03:54:54;;;;;;;;;;;;;;;-143.90;100.00;54930.53;3042656;19;19943;-62
2022/06/23 03:56:03;;;;;;;;;;;;;;;-143.90;100.00;54976.19;3043372;19;20897;-63
2022/06/23 03:57:06;;;;;;;;;;;;;;;-143.90;100.00;54984.16;3044396;19;19932;-63
2022/06/23 03:58:14;;;;;;;;;;;;;;;-143.90;100.00;54976.19;3040419;19;19933;-63
2022/06/23 03:59:16;;;;;;;;;;;;;;;-143.90;100.00;54986.13;3044162;19;19925;-63
2022/06/23 04:00:22;;;;;;;;;;;;;;;-143.90;100.00;55004.00;3041931;19;20036;-62
2022/06/23 04:01:30;;;;;;;;;;;;;;;-143.90;100.00;54968.25;3044327;19;19933;-62
2022/06/23 04:02:34;;;;;;;;;;;;;;;-143.90;100.00;54940.47;3039902;19;19923;-63
2022/06/23 04:03:47;;;;;;;;;;;;;;;-143.90;100.00;54968.25;3042307;19;20612;-62
2022/06/23 04:04:50;;;;;;;;;;;;;;;-143.90;100.00;54948.41;3043577;19;19911;-62
2022/06/23 04:05:57;;;;;;;;;;;;;;;-143.90;100.00;55000.03;3041744;19;19927;-62
2022/06/23 04:06:57;;;;;;;;;;;;;;;-143.90;100.00;54966.28;3043104;19;19922;-63
2022/06/23 04:07:59;;;;;;;;;;;;;;;-143.90;100.00;54968.25;3037328;19;19960;-62
2022/06/23 04:09:00;;;;;;;;;;;;;;;-143.90;100.00;54924.59;3042382;19;19930;-62
2022/06/23 04:10:08;;;;;;;;;;;;;;;-143.90;100.00;54976.19;3044381;19;19978;-63
2022/06/23 04:12:30;;;;;;;;;;;;;;;-143.90;100.00;54978.19;3043401;19;19930;-63
2022/06/23 04:13:31;;;;;;;;;;;;;;;-143.90;100.00;54952.38;3044490;19;19922;-63
2022/06/23 04:14:49;;;;;;;;;;;;;;;-143.90;100.00;54956.34;3043657;19;20005;-64
2022/06/23 04:15:50;;;;;;;;;;;;;;;-143.90;100.00;54942.44;3044008;19;19919;-63
2022/06/23 04:16:53;;;;;;;;;;;;;;;-143.90;100.00;54914.66;3046140;19;19983;-64
2022/06/23 04:17:56;;;;;;;;;;;;;;;-143.90;100.00;54948.41;3043982;19;19938;-63
2022/06/23 04:18:57;;;;;;;;;;;;;;;-143.90;100.00;54954.38;3046665;19;19923;-63
2022/06/23 04:20:16;;;;;;;;;;;;;;;-143.90;100.00;54956.34;3044596;19;20007;-63
2022/06/23 04:21:18;;;;;;;;;;;;;;;-143.90;100.00;54950.38;3044386;19;20002;-63
2022/06/23 04:22:21;;;;;;;;;;;;;;;-143.90;100.00;54948.41;3046516;19;19935;-62
2022/06/23 04:23:27;;;;;;;;;;;;;;;-143.90;100.00;54944.44;3045658;19;19930;-62
2022/06/23 04:24:27;;;;;;;;;;;;;;;-143.90;100.00;54948.41;3044307;19;19919;-63
2022/06/23 04:25:48;;;;;;;;;;;;;;;-143.90;100.00;54956.34;3046324;19;19922;-63
2022/06/23 04:26:51;;;;;;;;;;;;;;;-143.90;100.00;54964.28;3046745;19;19933;-62
2022/06/23 04:27:53;;;;;;;;;;;;;;;-143.90;100.00;54948.41;3044530;19;19933;-62
2022/06/23 04:28:55;;;;;;;;;;;;;;;-143.90;100.00;54956.34;3044933;19;19922;-62
2022/06/23 04:29:57;;;;;;;;;;;;;;;-143.90;100.00;54932.53;3047374;19;20637;-63
2022/06/23 04:30:58;;;;;;;;;;;;;;;-143.90;100.00;54932.53;3045531;19;19978;-62
2022/06/23 04:32:01;;;;;;;;;;;;;;;-143.90;100.00;54948.41;3046112;19;20374;-62
2022/06/23 04:33:04;;;;;;;;;;;;;;;-143.90;100.00;54944.44;3044525;19;19943;-60
2022/06/23 04:34:04;;;;;;;;;;;;;;;-143.90;100.00;54940.47;3044180;19;21115;-63
2022/06/23 04:35:05;;;;;;;;;;;;;;;-143.90;100.00;54952.38;3046078;19;20299;-63
2022/06/23 04:36:13;;;;;;;;;;;;;;;-143.90;100.00;54956.34;3043211;19;19927;-63
2022/06/23 04:37:40;;;;;;;;;;;;;;;-143.90;100.00;54916.63;3046036;19;19919;-62
2022/06/23 04:38:43;;;;;;;;;;;;;;;-143.90;100.00;54932.53;3044911;19;19959;-61
2022/06/23 04:39:47;;;;;;;;;;;;;;;-143.90;100.00;54932.53;3045193;19;19923;-61
2022/06/23 04:40:49;;;;;;;;;;;;;;;-143.90;100.00;54938.47;3045225;19;19922;-62
2022/06/23 04:41:51;;;;;;;;;;;;;;;-143.90;100.00;54908.69;3045526;19;19922;-59
2022/06/23 04:42:57;;;;;;;;;;;;;;;-143.90;100.00;54926.56;3045029;19;19998;-62
2022/06/23 04:43:58;;;;;;;;;;;;;;;-143.90;100.00;54914.66;3046583;19;20629;-63
2022/06/23 04:45:18;;;;;;;;;;;;;;;-143.90;100.00;54904.72;3045342;19;20018;-62
2022/06/23 04:46:20;;;;;;;;;;;;;;;-143.90;100.00;54964.28;3043132;19;20015;-62
2022/06/23 04:47:25;;;;;;;;;;;;;;;-143.90;100.00;54934.50;3045423;19;19915;-61
2022/06/23 04:48:28;;;;;;;;;;;;;;;-143.90;100.00;54906.72;3040536;19;19926;-62
2022/06/23 04:49:31;;;;;;;;;;;;;;;-143.90;100.00;54920.59;3044065;19;20415;-62
2022/06/23 04:51:01;;;;;;;;;;;;;;;-143.90;100.00;54914.66;3043931;19;19918;-63
2022/06/23 04:52:03;;;;;;;;;;;;;;;-143.90;100.00;54948.41;3044816;19;19914;-60
2022/06/23 04:53:04;;;;;;;;;;;;;;;-143.90;100.00;54926.56;3045315;19;20387;-62
2022/06/23 04:54:11;;;;;;;;;;;;;;;-143.90;100.00;54908.69;3044203;19;20415;-62
2022/06/23 04:55:13;;;;;;;;;;;;;;;-143.90;100.00;54898.78;3046196;19;19940;-62
2022/06/23 04:56:17;;;;;;;;;;;;;;;-143.90;100.00;54906.72;3049308;19;19994;-61
2022/06/23 04:57:25;;;;;;;;;;;;;;;-143.90;100.00;54936.50;3048783;19;20704;-62
2022/06/23 04:58:26;;;;;;;;;;;;;;;-143.90;100.00;54916.63;3046237;19;19927;-62
2022/06/23 04:59:30;;;;;;;;;;;;;;;-143.90;100.00;54900.75;3048249;19;19986;-63
2022/06/23 05:00:38;;;;;;;;;;;;;;;-143.90;100.00;54892.81;3044967;19;19979;-63
2022/06/23 05:01:40;;;;;;;;;;;;;;;-143.90;100.00;54892.81;3046131;19;19942;-63
2022/06/23 05:02:42;;;;;;;;;;;;;;;-143.90;100.00;54924.59;3048886;19;19923;-62
2022/06/23 05:03:44;;;;;;;;;;;;;;;-143.90;100.00;54928.56;3047628;19;20599;-63
2022/06/23 05:04:45;;;;;;;;;;;;;;;-143.90;100.00;54928.56;3049015;19;19919;-62
2022/06/23 05:05:52;;;;;;;;;;;;;;;-143.90;100.00;54940.47;3046870;19;20026;-62
2022/06/23 05:06:57;;;;;;;;;;;;;;;-143.90;100.00;54934.50;3047958;19;20550;-63
2022/06/23 05:07:58;;;;;;;;;;;;;;;-143.90;100.00;54904.72;3048280;19;20784;-63
2022/06/23 05:09:00;;;;;;;;;;;;;;;-143.90;100.00;54900.75;3045933;19;20039;-62
2022/06/23 05:10:02;;;;;;;;;;;;;;;-143.90;100.00;54948.41;3046287;19;19935;-62
2022/06/23 05:11:06;;;;;;;;;;;;;;;-143.90;100.00;54902.75;3049246;19;19919;-63
2022/06/23 05:12:16;;;;;;;;;;;;;;;-143.90;100.00;54896.78;3046690;19;19931;-63
2022/06/23 05:13:18;;;;;;;;;;;;;;;-143.90;100.00;54896.78;3045967;19;19947;-63
2022/06/23 05:14:20;;;;;;;;;;;;;;;-143.90;100.00;54932.53;3050260;19;19918;-63
2022/06/23 05:15:27;;;;;;;;;;;;;;;-143.90;100.00;54906.72;3045301;19;19927;-63
2022/06/23 05:16:28;;;;;;;;;;;;;;;-143.90;100.00;54908.69;3047715;19;19934;-63
2022/06/23 05:17:31;;;;;;;;;;;;;;;-143.90;98.24;54904.72;3048413;19;19915;-63
2022/06/23 05:18:33;;;;;;;;;;;;;;;-143.90;95.86;54906.72;3045441;19;20416;-63
2022/06/23 05:19:35;;;;;;;;;;;;;;;-143.90;95.74;54872.97;3046514;19;21142;-63
2022/06/23 05:20:56;;;;;;;;;;;;;;;-143.90;95.52;54884.88;3050996;19;20541;-63
2022/06/23 05:22:06;;;;;;;;;;;;;;;-143.90;91.65;54849.13;3047288;19;19915;-63
2022/06/23 05:23:12;;;;;;;;;;;;;;;-143.90;91.41;54924.59;3048071;19;19994;-63
2022/06/23 05:24:15;;;;;;;;;;;;;;;-143.90;89.09;54888.84;3047791;19;19926;-63
2022/06/23 05:25:16;;;;;;;;;;;;;;;-143.90;89.07;54882.88;3048840;19;19919;-63
2022/06/23 05:26:21;;;;;;;;;;;;;;;-143.90;87.03;54876.94;3044743;19;19925;-63
2022/06/23 05:27:29;;;;;;;;;;;;;;;-143.90;86.08;54861.03;3049624;19;19933;-62
2022/06/23 05:28:31;;;;;;;;;;;;;;;-143.90;85.53;54894.78;3047507;19;20410;-63
2022/06/23 05:29:35;;;;;;;;;;;;;;;-143.90;85.43;54876.94;3044002;19;19933;-63
2022/06/23 05:30:40;;;;;;;;;;;;;;;-143.90;86.35;54898.78;3049020;19;19922;-63
2022/06/23 05:31:41;;;;;;;;;;;;;;;-143.90;86.00;54894.78;3047796;19;19934;-62
2022/06/23 05:32:44;;;;;;;;;;;;;;;-143.90;85.49;54876.94;3046668;19;19947;-62
2022/06/23 05:33:46;;;;;;;;;;;;;;;-143.90;86.92;54900.75;3049096;19;19997;-64
2022/06/23 05:34:48;;;;;;;;;;;;;;;-143.90;86.62;54896.78;3048128;19;19990;-64
2022/06/23 05:35:50;;;;;;;;;;;;;;;-143.90;86.33;54890.81;3047056;19;20778;-63
2022/06/23 05:37:12;;;;;;;;;;;;;;;-143.90;85.39;54888.84;3047110;19;20271;-63
2022/06/23 05:38:21;;;;;;;;;;;;;;;-143.90;86.03;54896.78;3047357;19;19918;-62
2022/06/23 05:39:25;;;;;;;;;;;;;;;-143.90;84.35;54882.88;3046759;19;19945;-64